createdAt,value
2019-03-02T00:00:02.126Z,22.70
2019-03-02T00:02:32.462Z,23.30
2019-03-02T00:05:02.669Z,23.20
2019-03-02T00:07:32.940Z,23.33
2019-03-02T00:10:03.201Z,23.43
2019-03-02T00:12:33.456Z,22.90
2019-03-02T00:15:03.925Z,22.57
2019-03-02T00:17:34.203Z,23.63
2019-03-02T00:20:04.559Z,22.47
2019-03-02T00:22:34.784Z,23.23
2019-03-02T00:25:05.070Z,22.60
2019-03-02T00:27:35.304Z,23.67
2019-03-02T00:30:06.028Z,23.70
2019-03-02T00:32:36.228Z,23.10
2019-03-02T00:35:07.232Z,24.20
2019-03-02T00:37:38.337Z,22.63
2019-03-02T00:40:08.835Z,23.97
2019-03-02T00:42:39.116Z,24.17
2019-03-02T00:45:10.694Z,24.73
2019-03-02T00:47:41.334Z,23.67
2019-03-02T00:50:11.880Z,25.50
2019-03-02T00:52:42.144Z,24.03
2019-03-02T00:55:12.334Z,23.20
2019-03-02T00:57:42.520Z,24.47
2019-03-02T01:00:15.378Z,24.97
2019-03-02T01:02:45.812Z,24.37
2019-03-02T01:05:16.347Z,24.80
2019-03-02T01:07:46.836Z,24.40
2019-03-02T01:10:18.960Z,24.30
2019-03-02T01:12:49.203Z,24.27
2019-03-02T01:15:19.418Z,25.07
2019-03-02T01:17:49.700Z,22.57
2019-03-02T01:20:20.049Z,23.83
2019-03-02T01:22:51.787Z,22.60
2019-03-02T01:25:22.351Z,23.40
2019-03-02T01:27:52.550Z,22.33
2019-03-02T01:30:22.835Z,21.87
2019-03-02T01:32:53.673Z,21.73
2019-03-02T01:35:23.985Z,21.93
2019-03-02T01:37:54.220Z,23.23
2019-03-02T01:40:24.512Z,23.47
2019-03-02T01:42:54.805Z,22.17
2019-03-02T01:45:27.675Z,21.77
2019-03-02T01:47:57.137Z,21.97
2019-03-02T01:50:27.411Z,21.97
2019-03-02T01:52:57.704Z,21.67
2019-03-02T01:55:31.126Z,21.47
2019-03-02T01:57:59.959Z,21.67
2019-03-02T02:00:30.508Z,19.90
2019-03-02T02:03:00.715Z,20.13
2019-03-02T02:05:31.954Z,19.00
2019-03-02T02:08:02.989Z,18.80
2019-03-02T02:10:33.264Z,20.23
2019-03-02T02:13:06.206Z,19.63
2019-03-02T02:15:35.785Z,19.67
2019-03-02T02:18:06.072Z,20.30
2019-03-02T02:20:36.297Z,18.93
2019-03-02T02:23:09.659Z,18.40
2019-03-02T02:25:38.395Z,17.93
2019-03-02T02:28:08.593Z,19.37
2019-03-02T02:30:38.816Z,18.33
2019-03-02T02:33:09.008Z,18.50
2019-03-02T02:35:40.220Z,18.07
2019-03-02T02:38:15.809Z,19.13
2019-03-02T02:40:43.139Z,18.33
2019-03-02T02:43:20.420Z,18.20
2019-03-02T02:45:49.038Z,20.13
2019-03-02T02:48:17.253Z,19.30
2019-03-02T02:50:47.685Z,18.90
2019-03-02T02:53:17.882Z,19.50
2019-03-02T02:55:48.115Z,18.83
2019-03-02T02:58:19.414Z,18.67
2019-03-02T03:00:54.787Z,18.93
2019-03-02T03:03:22.610Z,19.03
2019-03-02T03:05:53.957Z,18.47
2019-03-02T03:08:40.116Z,18.23
2019-03-02T03:11:10.738Z,18.00
2019-03-02T03:13:42.330Z,18.73
2019-03-02T03:16:16.575Z,19.03
2019-03-02T03:18:46.954Z,19.07
2019-03-02T03:21:16.760Z,18.47
2019-03-02T03:23:46.942Z,18.73
2019-03-02T03:26:17.150Z,19.73
2019-03-02T03:28:47.425Z,18.53
2019-03-02T03:31:23.056Z,18.57
2019-03-02T03:33:49.721Z,19.43
2019-03-02T03:36:20.016Z,19.43
2019-03-02T03:38:50.288Z,19.50
2019-03-02T03:41:20.504Z,18.17
2019-03-02T03:43:50.692Z,19.33
2019-03-02T03:46:22.369Z,19.17
2019-03-02T03:48:56.259Z,19.43
2019-03-02T03:51:26.273Z,19.40
2019-03-02T03:54:01.772Z,19.53
2019-03-02T03:56:28.738Z,19.57
2019-03-02T03:58:58.932Z,18.40
2019-03-02T04:01:29.266Z,18.53
2019-03-02T04:03:59.642Z,18.50
2019-03-02T04:06:29.835Z,18.27
2019-03-02T04:09:03.365Z,18.53
2019-03-02T04:11:32.030Z,18.73
2019-03-02T04:14:02.219Z,17.70
2019-03-02T04:16:32.430Z,19.10
2019-03-02T04:19:03.155Z,18.77
2019-03-02T04:21:41.585Z,18.60
2019-03-02T04:24:11.849Z,18.37
2019-03-02T04:26:42.051Z,18.57
2019-03-02T04:29:12.315Z,18.07
2019-03-02T04:31:43.871Z,19.47
2019-03-02T04:34:20.695Z,18.37
2019-03-02T04:36:47.452Z,17.13
2019-03-02T04:39:18.320Z,16.33
2019-03-02T04:41:48.527Z,16.30
2019-03-02T04:44:18.724Z,17.87
2019-03-02T04:46:51.382Z,16.90
2019-03-02T04:49:21.025Z,16.73
2019-03-02T04:51:51.393Z,16.67
2019-03-02T04:54:21.594Z,17.17
2019-03-02T04:56:51.889Z,17.37
2019-03-02T04:59:23.001Z,18.27
2019-03-02T05:01:53.346Z,16.47
2019-03-02T05:04:23.514Z,16.97
2019-03-02T05:06:54.499Z,16.70
2019-03-02T05:09:25.820Z,16.90
2019-03-02T05:11:56.093Z,17.07
2019-03-02T05:14:26.282Z,17.67
2019-03-02T05:16:56.527Z,17.50
2019-03-02T05:19:29.159Z,17.63
2019-03-02T05:21:58.820Z,17.23
2019-03-02T05:24:29.092Z,17.83
2019-03-02T05:26:59.384Z,19.03
2019-03-02T05:29:29.692Z,17.00
2019-03-02T05:31:59.868Z,19.30
2019-03-02T05:34:30.180Z,19.27
2019-03-02T05:37:02.873Z,20.23
2019-03-02T05:39:32.446Z,20.13
2019-03-02T05:42:02.750Z,21.90
2019-03-02T05:44:33.080Z,20.07
2019-03-02T05:47:03.397Z,19.03
2019-03-02T05:49:33.616Z,20.30
2019-03-02T05:52:03.901Z,20.50
2019-03-02T05:54:34.185Z,19.37
2019-03-02T05:57:05.497Z,18.87
2019-03-02T05:59:35.828Z,21.93
2019-03-02T06:02:06.105Z,20.77
2019-03-02T06:04:36.397Z,19.90
2019-03-02T06:07:06.661Z,19.77
2019-03-02T06:09:36.915Z,20.33
2019-03-02T06:12:07.118Z,19.83
2019-03-02T06:14:37.460Z,20.73
2019-03-02T06:17:07.665Z,19.47
2019-03-02T06:19:37.881Z,20.83
2019-03-02T06:22:08.044Z,20.47
2019-03-02T06:24:41.069Z,21.07
2019-03-02T06:27:10.910Z,21.23
2019-03-02T06:29:42.033Z,20.73
2019-03-02T06:32:12.305Z,20.83
2019-03-02T06:34:42.588Z,20.03
2019-03-02T06:37:12.886Z,21.20
2019-03-02T06:39:44.508Z,21.93
2019-03-02T06:42:14.849Z,19.73
2019-03-02T06:44:45.076Z,21.20
2019-03-02T06:47:15.321Z,21.50
2019-03-02T06:49:45.583Z,21.47
2019-03-02T06:52:19.195Z,18.97
2019-03-02T06:54:48.288Z,20.50
2019-03-02T06:57:19.336Z,19.93
2019-03-02T06:59:49.664Z,19.23
2019-03-02T07:02:19.951Z,20.33
2019-03-02T07:04:50.196Z,20.20
2019-03-02T07:07:21.753Z,19.50
2019-03-02T07:09:52.371Z,19.83
2019-03-02T07:12:22.586Z,19.23
2019-03-02T07:14:52.921Z,19.33
2019-03-02T07:17:46.541Z,19.40
2019-03-02T07:20:19.814Z,18.50
2019-03-02T07:22:52.480Z,19.93
2019-03-02T07:25:22.030Z,20.73
2019-03-02T07:27:52.308Z,20.97
2019-03-02T07:30:22.619Z,21.20
2019-03-02T07:32:54.754Z,20.93
2019-03-02T07:35:24.805Z,21.17
2019-03-02T07:37:55.082Z,20.37
2019-03-02T07:40:25.365Z,19.57
2019-03-02T07:42:55.600Z,20.80
2019-03-02T07:45:27.190Z,19.30
2019-03-02T07:48:00.335Z,20.10
2019-03-02T07:50:29.799Z,19.80
2019-03-02T07:53:00.167Z,20.10
2019-03-02T07:55:30.436Z,19.43
2019-03-02T07:58:00.647Z,20.20
2019-03-02T08:00:31.981Z,20.33
2019-03-02T08:03:02.267Z,19.67
2019-03-02T08:05:32.448Z,20.27
2019-03-02T08:08:02.746Z,19.13
2019-03-02T08:10:34.755Z,17.70
2019-03-02T08:13:05.017Z,17.73
2019-03-02T08:15:35.302Z,18.07
2019-03-02T08:18:05.729Z,18.97
2019-03-02T08:20:35.992Z,17.50
2019-03-02T08:23:06.379Z,17.23
2019-03-02T08:25:36.692Z,16.67
2019-03-02T08:28:10.008Z,16.83
2019-03-02T08:30:38.922Z,15.63
2019-03-02T08:33:09.342Z,16.57
2019-03-02T08:35:39.549Z,15.33
2019-03-02T08:38:09.952Z,16.23
2019-03-02T08:40:40.253Z,14.80
2019-03-02T08:43:12.993Z,14.60
2019-03-02T08:45:42.571Z,14.63
2019-03-02T08:48:12.948Z,13.63
2019-03-02T08:50:43.250Z,13.40
2019-03-02T08:53:13.573Z,13.13
2019-03-02T08:55:43.811Z,13.77
2019-03-02T08:58:14.061Z,12.80
2019-03-02T09:00:44.353Z,13.13
2019-03-02T09:03:14.677Z,14.07
2019-03-02T09:05:51.279Z,12.60
2019-03-02T09:08:17.053Z,12.97
2019-03-02T09:10:49.164Z,12.90
2019-03-02T09:13:19.341Z,12.83
2019-03-02T09:15:49.627Z,12.33
2019-03-02T09:18:19.933Z,12.17
2019-03-02T09:20:50.240Z,11.87
2019-03-02T09:23:20.545Z,13.63
2019-03-02T09:25:50.864Z,13.30
2019-03-02T09:28:21.750Z,12.17
2019-03-02T09:30:52.109Z,12.23
2019-03-02T09:33:24.711Z,12.90
2019-03-02T09:35:55.062Z,12.43
2019-03-02T09:38:25.926Z,13.20
2019-03-02T09:40:56.149Z,12.27
2019-03-02T09:43:26.473Z,11.90
2019-03-02T09:45:56.755Z,11.30
2019-03-02T09:48:27.076Z,11.53
2019-03-02T09:50:57.293Z,9.93
2019-03-02T09:53:27.580Z,10.50
2019-03-02T09:55:58.470Z,10.83
2019-03-02T09:58:29.847Z,10.87
2019-03-02T10:01:01.058Z,10.40
2019-03-02T10:03:32.266Z,9.93
2019-03-02T10:06:02.542Z,9.03
2019-03-02T10:08:32.797Z,10.07
2019-03-02T10:11:06.069Z,9.23
2019-03-02T10:13:35.185Z,8.50
2019-03-02T10:16:05.740Z,10.20
2019-03-02T10:18:36.088Z,8.57
2019-03-02T10:21:06.498Z,8.83
2019-03-02T10:23:38.945Z,9.77
2019-03-02T10:26:08.956Z,8.33
2019-03-02T10:28:39.205Z,8.87
2019-03-02T10:31:09.431Z,8.40
2019-03-02T10:33:39.734Z,9.10
2019-03-02T10:36:10.035Z,9.13
2019-03-02T10:38:40.280Z,9.70
2019-03-02T10:41:10.585Z,8.73
2019-03-02T10:43:42.786Z,8.40
2019-03-02T10:46:12.894Z,7.63
2019-03-02T10:48:43.148Z,8.13
2019-03-02T10:51:13.469Z,7.93
2019-03-02T10:53:43.760Z,7.87
2019-03-02T10:56:14.012Z,7.27
2019-03-02T10:58:44.309Z,7.13
2019-03-02T11:01:14.549Z,7.70
2019-03-02T11:03:44.914Z,7.43
2019-03-02T11:06:34.163Z,7.87
2019-03-02T11:09:22.545Z,8.53
2019-03-02T11:12:12.434Z,8.60
2019-03-02T11:15:13.673Z,9.97
2019-03-02T11:18:01.267Z,10.37
2019-03-02T11:20:59.010Z,10.17
2019-03-02T11:23:41.274Z,11.47
2019-03-02T11:26:33.477Z,13.70
2019-03-02T11:29:27.887Z,12.67
2019-03-02T11:32:16.899Z,12.23
2019-03-02T11:35:06.810Z,11.47
2019-03-02T11:37:58.046Z,11.03
2019-03-02T11:40:47.137Z,10.93
2019-03-02T11:43:39.148Z,11.37
2019-03-02T11:46:31.970Z,12.93
2019-03-02T11:49:38.479Z,12.37
2019-03-02T11:52:18.330Z,11.97
2019-03-02T11:55:10.680Z,11.80
2019-03-02T11:57:58.841Z,11.50
2019-03-02T12:00:54.261Z,11.63
2019-03-02T12:03:50.412Z,10.13
2019-03-02T12:06:48.779Z,8.87
2019-03-02T12:09:27.809Z,8.60
2019-03-02T12:12:09.559Z,9.13
2019-03-02T12:14:46.281Z,9.80
2019-03-02T12:17:37.900Z,9.20
2019-03-02T12:20:20.209Z,8.27
2019-03-02T12:23:08.974Z,8.33
2019-03-02T12:25:56.903Z,8.50
2019-03-02T12:28:49.193Z,7.80
2019-03-02T12:31:37.977Z,7.67
2019-03-02T12:34:22.921Z,8.23
2019-03-02T12:37:14.942Z,7.83
2019-03-02T12:40:04.374Z,8.07
2019-03-02T12:42:53.653Z,7.60
2019-03-02T12:45:51.984Z,8.03
2019-03-02T12:48:47.039Z,8.77
2019-03-02T12:51:23.252Z,9.93
2019-03-02T12:54:24.912Z,7.70
2019-03-02T12:57:09.874Z,7.93
2019-03-02T12:59:56.028Z,6.90
2019-03-02T13:02:52.562Z,7.37
2019-03-02T13:05:40.545Z,7.63
2019-03-02T13:08:28.496Z,7.00
2019-03-02T13:11:14.492Z,7.83
2019-03-02T13:14:12.903Z,7.17
2019-03-02T13:16:52.407Z,6.00
2019-03-02T13:19:33.772Z,6.00
2019-03-02T13:22:26.200Z,6.40
2019-03-02T13:25:12.603Z,4.93
2019-03-02T13:28:11.000Z,4.57
2019-03-02T13:31:15.141Z,4.60
2019-03-02T13:34:03.161Z,5.10
2019-03-02T13:36:52.448Z,4.57
2019-03-02T13:39:47.165Z,5.23
2019-03-02T13:42:28.008Z,5.47
2019-03-02T13:45:35.540Z,5.10
2019-03-02T13:48:25.671Z,4.70
2019-03-02T13:51:16.384Z,4.50
2019-03-02T13:54:11.514Z,5.33
2019-03-02T13:57:12.707Z,5.07
2019-03-02T14:00:03.509Z,5.03
2019-03-02T14:02:55.574Z,5.80
2019-03-02T14:05:50.568Z,5.10
2019-03-02T14:08:52.073Z,5.57
2019-03-02T14:11:56.516Z,6.23
2019-03-02T14:14:44.553Z,6.07
2019-03-02T14:17:40.704Z,5.33
2019-03-02T14:20:38.767Z,5.77
2019-03-02T14:23:15.587Z,5.93
2019-03-02T14:25:51.099Z,5.97
2019-03-02T14:28:40.335Z,5.90
2019-03-02T14:31:20.018Z,5.97
2019-03-02T14:34:12.076Z,6.53
2019-03-02T14:36:50.633Z,6.27
2019-03-02T14:39:30.497Z,6.60
2019-03-02T14:42:07.975Z,6.40
2019-03-02T14:44:56.637Z,8.00
2019-03-02T14:47:55.085Z,6.57
2019-03-02T14:50:45.161Z,6.63
2019-03-02T14:53:32.930Z,7.23
2019-03-02T14:56:13.802Z,7.00
2019-03-02T14:59:01.967Z,7.00
2019-03-02T15:01:51.255Z,7.00
2019-03-02T15:04:45.264Z,7.17
2019-03-02T15:07:37.332Z,7.20
2019-03-02T15:10:26.717Z,7.20
2019-03-02T15:13:11.356Z,7.73
2019-03-02T15:16:05.939Z,7.13
2019-03-02T15:18:53.819Z,7.63
2019-03-02T15:21:34.890Z,7.53
2019-03-02T15:24:22.510Z,8.27
2019-03-02T15:27:06.441Z,7.93
2019-03-02T15:29:58.756Z,8.90
2019-03-02T15:32:47.998Z,8.37
2019-03-02T15:35:33.664Z,7.83
2019-03-02T15:38:17.454Z,7.50
2019-03-02T15:40:59.294Z,7.77
2019-03-02T15:43:48.568Z,6.50
2019-03-02T15:46:52.755Z,6.70
2019-03-02T15:49:47.925Z,6.77
2019-03-02T15:52:26.362Z,6.60
2019-03-02T15:55:12.080Z,5.93
2019-03-02T15:58:01.347Z,5.97
2019-03-02T16:00:53.419Z,5.77
2019-03-02T16:03:35.129Z,5.90
2019-03-02T16:06:19.644Z,5.90
2019-03-02T16:09:05.494Z,5.40
2019-03-02T16:11:49.366Z,6.27
2019-03-02T16:14:44.677Z,6.67
2019-03-02T16:17:22.327Z,6.77
2019-03-02T16:20:18.521Z,5.70
2019-03-02T16:23:09.694Z,5.80
2019-03-02T16:26:04.166Z,5.43
2019-03-02T16:28:42.569Z,5.37
2019-03-02T16:31:24.099Z,6.17
2019-03-02T16:34:12.555Z,6.20
2019-03-02T16:37:00.309Z,6.00
2019-03-02T16:39:44.759Z,5.80
2019-03-02T16:42:34.024Z,6.73
2019-03-02T16:45:15.379Z,6.23
2019-03-02T16:48:11.385Z,5.87
2019-03-02T16:50:58.150Z,6.30
2019-03-02T16:53:53.668Z,5.80
2019-03-02T16:56:34.623Z,6.27
2019-03-02T16:59:32.236Z,5.53
2019-03-02T17:02:26.952Z,5.67
2019-03-02T17:05:16.206Z,5.97
2019-03-02T17:08:11.479Z,6.43
2019-03-02T17:11:01.054Z,5.17
2019-03-02T17:13:37.988Z,5.97
2019-03-02T17:16:25.664Z,6.03
2019-03-02T17:19:14.479Z,5.95
2019-03-02T17:21:52.861Z,5.83
2019-03-02T17:24:50.945Z,6.30
2019-03-02T17:27:31.052Z,6.13
2019-03-02T17:30:35.232Z,6.23
2019-03-02T17:33:17.465Z,6.27
2019-03-02T17:36:05.763Z,5.57
2019-03-02T17:38:48.708Z,6.53
2019-03-02T17:41:51.352Z,8.17
2019-03-02T17:44:32.414Z,6.30
2019-03-02T17:47:10.066Z,7.17
2019-03-02T17:50:16.236Z,18.37
2019-03-02T17:53:05.346Z,45.67
2019-03-02T17:56:06.743Z,16.60
2019-03-02T17:58:55.595Z,7.83
2019-03-02T18:01:49.037Z,10.20
2019-03-02T18:04:37.129Z,8.60
2019-03-02T18:07:24.477Z,7.97
2019-03-02T18:10:28.632Z,7.43
2019-03-02T18:13:20.398Z,6.93
2019-03-02T18:16:08.082Z,6.50
2019-03-02T18:18:38.369Z,6.33
2019-03-02T18:21:08.728Z,6.17
2019-03-02T18:23:39.091Z,6.40
2019-03-02T18:26:11.112Z,6.07
2019-03-02T18:28:41.358Z,5.83
2019-03-02T18:31:11.574Z,5.63
2019-03-02T18:33:51.018Z,4.83
2019-03-02T18:36:21.317Z,4.90
2019-03-02T18:38:51.615Z,5.53
2019-03-02T18:41:21.808Z,5.00
2019-03-02T18:43:52.130Z,4.87
2019-03-02T18:46:22.435Z,4.87
2019-03-02T18:49:13.875Z,5.00
2019-03-02T18:52:10.232Z,5.07
2019-03-02T18:54:40.623Z,5.10
2019-03-02T18:57:13.218Z,4.43
2019-03-02T18:59:43.394Z,4.93
2019-03-02T19:02:15.096Z,5.20
2019-03-02T19:04:46.332Z,4.30
2019-03-02T19:07:16.646Z,4.53
2019-03-02T19:09:46.953Z,4.90
2019-03-02T19:12:17.288Z,4.77
2019-03-02T19:14:47.615Z,4.17
2019-03-02T19:17:17.912Z,6.50
2019-03-02T19:19:48.207Z,4.90
2019-03-02T19:22:18.433Z,4.70
2019-03-02T19:24:48.833Z,4.20
2019-03-02T19:27:19.113Z,4.37
2019-03-02T19:29:49.449Z,3.57
2019-03-02T19:32:19.825Z,3.77
2019-03-02T19:34:50.049Z,3.73
2019-03-02T19:37:20.352Z,3.97
2019-03-02T19:39:50.699Z,4.07
2019-03-02T19:42:20.919Z,3.73
2019-03-02T19:44:51.166Z,3.70
2019-03-02T19:47:21.451Z,4.37
2019-03-02T19:49:51.832Z,4.27
2019-03-02T19:52:22.198Z,4.63
2019-03-02T19:54:52.407Z,4.70
2019-03-02T19:57:22.710Z,4.77
2019-03-02T19:59:52.918Z,4.40
2019-03-02T20:02:23.237Z,4.23
2019-03-02T20:04:53.471Z,4.10
2019-03-02T20:07:23.796Z,3.67
2019-03-02T20:09:54.097Z,3.77
2019-03-02T20:12:24.438Z,4.43
2019-03-02T20:14:54.874Z,4.60
2019-03-02T20:17:25.207Z,4.03
2019-03-02T20:19:55.441Z,3.90
2019-03-02T20:22:25.785Z,3.73
2019-03-02T20:24:56.110Z,3.93
2019-03-02T20:27:26.401Z,4.20
2019-03-02T20:29:56.709Z,4.10
2019-03-02T20:32:27.045Z,4.27
2019-03-02T20:34:57.344Z,4.13
2019-03-02T20:37:27.628Z,3.47
2019-03-02T20:39:57.905Z,3.90
2019-03-02T20:42:28.235Z,3.30
2019-03-02T20:44:58.556Z,3.77
2019-03-02T20:47:28.913Z,4.17
2019-03-02T20:49:59.291Z,3.97
2019-03-02T20:52:29.593Z,3.60
2019-03-02T20:54:59.915Z,3.77
2019-03-02T20:57:30.145Z,3.43
2019-03-02T21:00:00.398Z,2.90
2019-03-02T21:02:30.766Z,3.37
2019-03-02T21:05:01.060Z,3.50
2019-03-02T21:07:31.421Z,3.60
2019-03-02T21:10:01.752Z,3.23
2019-03-02T21:12:32.060Z,3.20
2019-03-02T21:15:02.368Z,3.17
2019-03-02T21:17:32.694Z,3.97
2019-03-02T21:20:03.142Z,3.20
2019-03-02T21:22:33.498Z,3.10
2019-03-02T21:25:04.016Z,3.27
2019-03-02T21:27:34.346Z,2.63
2019-03-02T21:30:05.257Z,3.13
2019-03-02T21:32:35.616Z,3.40
2019-03-02T21:35:06.320Z,2.70
2019-03-02T21:37:36.638Z,2.43
2019-03-02T21:40:12.516Z,3.20
2019-03-02T21:42:42.840Z,3.00
2019-03-02T21:45:15.038Z,2.17
2019-03-02T21:47:45.734Z,2.43
2019-03-02T21:50:18.265Z,2.33
2019-03-02T21:52:48.581Z,1.90
2019-03-02T21:55:19.011Z,1.90
2019-03-02T21:57:49.249Z,2.00
2019-03-02T22:00:21.720Z,2.50
2019-03-02T22:02:52.353Z,2.37
2019-03-02T22:05:22.676Z,1.97
2019-03-02T22:07:53.197Z,2.00
2019-03-02T22:10:29.021Z,1.93
2019-03-02T22:12:59.390Z,2.10
2019-03-02T22:15:30.125Z,1.93
2019-03-02T22:18:00.446Z,1.80
2019-03-02T22:20:30.834Z,1.60
2019-03-02T22:23:01.133Z,1.80
2019-03-02T22:25:31.480Z,1.87
2019-03-02T22:28:01.850Z,1.97
2019-03-02T22:30:32.168Z,1.83
2019-03-02T22:33:02.500Z,1.50
2019-03-02T22:35:32.823Z,1.60
2019-03-02T22:38:03.122Z,1.80
2019-03-02T22:40:33.360Z,1.90
2019-03-02T22:43:03.770Z,1.47
2019-03-02T22:45:34.182Z,1.80
2019-03-02T22:48:04.514Z,1.73
2019-03-02T22:50:35.001Z,1.30
2019-03-02T22:53:05.229Z,1.23
2019-03-02T22:55:35.526Z,1.07
2019-03-02T22:58:05.936Z,1.40
2019-03-02T23:01:20.661Z,1.23
2019-03-02T23:03:50.908Z,1.27
2019-03-02T23:06:21.224Z,1.10
2019-03-02T23:08:51.507Z,1.47
2019-03-02T23:11:21.828Z,1.40
2019-03-02T23:13:52.048Z,1.40
2019-03-02T23:16:22.364Z,1.33
2019-03-02T23:18:52.599Z,1.30
2019-03-02T23:21:22.823Z,1.60
2019-03-02T23:23:53.345Z,1.40
2019-03-02T23:26:23.623Z,1.50
2019-03-02T23:28:53.935Z,1.20
2019-03-02T23:31:24.141Z,1.40
2019-03-02T23:33:54.357Z,1.40
2019-03-02T23:36:24.685Z,1.50
2019-03-02T23:38:55.011Z,1.53
2019-03-02T23:41:25.296Z,1.27
2019-03-02T23:43:55.531Z,1.63
2019-03-02T23:46:25.812Z,1.40
2019-03-02T23:48:56.110Z,1.20
2019-03-02T23:51:26.349Z,1.20
2019-03-02T23:53:56.654Z,1.27
2019-03-02T23:56:26.944Z,1.60
2019-03-02T23:58:57.234Z,1.20
